createdAt,value
2019-03-03T00:00:05.282Z,9.88
2019-03-03T00:01:05.558Z,9.88
2019-03-03T00:02:05.596Z,9.88
2019-03-03T00:03:05.775Z,9.88
2019-03-03T00:04:05.433Z,9.88
2019-03-03T00:05:05.623Z,9.88
2019-03-03T00:06:05.678Z,9.88
2019-03-03T00:07:05.360Z,9.88
2019-03-03T00:08:05.931Z,9.94
2019-03-03T00:09:05.704Z,9.88
2019-03-03T00:10:05.206Z,9.88
2019-03-03T00:11:05.702Z,9.88
2019-03-03T00:12:05.781Z,9.88
2019-03-03T00:13:05.808Z,9.88
2019-03-03T00:14:05.768Z,9.88
2019-03-03T00:15:05.932Z,9.88
2019-03-03T00:16:05.134Z,9.81
2019-03-03T00:17:05.219Z,9.81
2019-03-03T00:18:05.751Z,9.81
2019-03-03T00:19:05.562Z,9.81
2019-03-03T00:20:05.601Z,9.81
2019-03-03T00:21:05.139Z,9.88
2019-03-03T00:22:05.369Z,9.81
2019-03-03T00:23:05.236Z,9.81
2019-03-03T00:24:05.294Z,9.81
2019-03-03T00:25:06.286Z,9.81
2019-03-03T00:26:05.869Z,9.81
2019-03-03T00:27:05.938Z,9.75
2019-03-03T00:28:05.990Z,9.75
2019-03-03T00:29:05.620Z,9.75
2019-03-03T00:30:06.097Z,9.75
2019-03-03T00:31:05.318Z,9.75
2019-03-03T00:32:05.289Z,9.75
2019-03-03T00:33:06.193Z,9.75
2019-03-03T00:34:05.593Z,9.75
2019-03-03T00:35:05.369Z,9.75
2019-03-03T00:36:05.851Z,9.75
2019-03-03T00:37:05.107Z,9.75
2019-03-03T00:38:05.366Z,9.75
2019-03-03T00:39:05.606Z,9.75
2019-03-03T00:40:05.699Z,9.75
2019-03-03T00:41:05.926Z,9.81
2019-03-03T00:42:05.108Z,9.81
2019-03-03T00:43:05.387Z,9.81
2019-03-03T00:44:05.387Z,9.81
2019-03-03T00:45:05.942Z,9.81
2019-03-03T00:46:05.047Z,9.81
2019-03-03T00:47:05.209Z,9.88
2019-03-03T00:48:05.378Z,9.88
2019-03-03T00:49:05.529Z,9.88
2019-03-03T00:50:05.758Z,9.88
2019-03-03T00:51:05.544Z,9.88
2019-03-03T00:52:05.050Z,9.88
2019-03-03T00:53:05.701Z,9.81
2019-03-03T00:54:05.997Z,9.81
2019-03-03T00:55:05.468Z,9.81
2019-03-03T00:56:05.535Z,9.81
2019-03-03T00:57:05.770Z,9.81
2019-03-03T00:58:05.938Z,9.81
2019-03-03T00:59:05.297Z,9.81
2019-03-03T01:00:05.363Z,9.88
2019-03-03T01:01:06.023Z,9.88
2019-03-03T01:02:05.560Z,9.81
2019-03-03T01:03:06.014Z,9.88
2019-03-03T01:04:05.521Z,9.81
2019-03-03T01:05:05.620Z,9.81
2019-03-03T01:06:05.767Z,9.81
2019-03-03T01:07:05.630Z,9.81
2019-03-03T01:08:06.001Z,9.88
2019-03-03T01:09:05.624Z,9.88
2019-03-03T01:10:06.071Z,9.88
2019-03-03T01:11:05.529Z,9.88
2019-03-03T01:12:05.675Z,9.88
2019-03-03T01:13:06.022Z,9.88
2019-03-03T01:14:05.633Z,9.88
2019-03-03T01:15:06.100Z,9.88
2019-03-03T01:16:05.531Z,9.88
2019-03-03T01:17:05.691Z,9.94
2019-03-03T01:18:05.825Z,9.88
2019-03-03T01:19:06.031Z,10.00
2019-03-03T01:20:05.700Z,10.00
2019-03-03T01:21:05.692Z,10.00
2019-03-03T01:22:05.285Z,9.94
2019-03-03T01:23:05.693Z,9.94
2019-03-03T01:24:05.606Z,9.94
2019-03-03T01:25:05.139Z,9.94
2019-03-03T01:26:05.699Z,9.94
2019-03-03T01:27:05.136Z,9.94
2019-03-03T01:28:05.206Z,9.88
2019-03-03T01:29:06.360Z,9.94
2019-03-03T01:30:05.723Z,9.88
2019-03-03T01:31:05.853Z,9.88
2019-03-03T01:32:05.695Z,9.88
2019-03-03T01:33:05.871Z,9.88
2019-03-03T01:34:05.966Z,9.88
2019-03-03T01:35:05.131Z,9.88
2019-03-03T01:36:05.222Z,9.88
2019-03-03T01:37:05.396Z,9.88
2019-03-03T01:38:05.851Z,9.88
2019-03-03T01:39:05.276Z,9.88
2019-03-03T01:40:05.444Z,9.88
2019-03-03T01:41:06.375Z,9.81
2019-03-03T01:42:06.019Z,9.88
2019-03-03T01:43:05.152Z,9.81
2019-03-03T01:44:05.191Z,9.81
2019-03-03T01:45:05.770Z,9.81
2019-03-03T01:46:05.297Z,9.81
2019-03-03T01:47:05.616Z,9.81
2019-03-03T01:48:05.117Z,9.81
2019-03-03T01:49:05.211Z,9.81
2019-03-03T01:50:05.542Z,9.81
2019-03-03T01:51:05.943Z,9.81
2019-03-03T01:52:05.283Z,9.81
2019-03-03T01:53:05.940Z,9.75
2019-03-03T01:54:05.052Z,9.81
2019-03-03T01:55:05.309Z,9.75
2019-03-03T01:56:05.453Z,9.75
2019-03-03T01:57:05.784Z,9.75
2019-03-03T01:58:05.841Z,9.75
2019-03-03T01:59:05.457Z,9.75
2019-03-03T02:00:05.774Z,9.81
2019-03-03T02:01:05.222Z,9.81
2019-03-03T02:02:05.232Z,9.81
2019-03-03T02:03:05.376Z,9.75
2019-03-03T02:04:05.846Z,9.75
2019-03-03T02:05:05.478Z,9.75
2019-03-03T02:06:05.368Z,9.75
2019-03-03T02:07:05.532Z,9.75
2019-03-03T02:08:06.001Z,9.75
2019-03-03T02:09:05.522Z,9.75
2019-03-03T02:10:06.018Z,9.75
2019-03-03T02:11:05.451Z,9.75
2019-03-03T02:12:06.018Z,9.81
2019-03-03T02:13:06.667Z,9.81
2019-03-03T02:14:05.914Z,9.81
2019-03-03T02:15:05.463Z,9.81
2019-03-03T02:16:05.522Z,9.81
2019-03-03T02:17:05.239Z,9.81
2019-03-03T02:18:05.541Z,9.81
2019-03-03T02:19:05.629Z,9.81
2019-03-03T02:20:06.594Z,9.81
2019-03-03T02:21:06.022Z,9.81
2019-03-03T02:22:05.440Z,9.81
2019-03-03T02:23:05.930Z,9.81
2019-03-03T02:24:05.121Z,9.81
2019-03-03T02:25:05.753Z,9.81
2019-03-03T02:26:05.998Z,9.81
2019-03-03T02:27:05.771Z,9.81
2019-03-03T02:28:05.702Z,9.81
2019-03-03T02:29:05.936Z,9.81
2019-03-03T02:30:06.099Z,9.81
2019-03-03T02:31:05.133Z,9.81
2019-03-03T02:32:05.694Z,9.81
2019-03-03T02:33:06.010Z,9.81
2019-03-03T02:34:05.592Z,9.81
2019-03-03T02:35:05.775Z,9.88
2019-03-03T02:36:05.302Z,9.88
2019-03-03T02:37:05.615Z,9.88
2019-03-03T02:38:05.700Z,9.88
2019-03-03T02:39:05.132Z,9.88
2019-03-03T02:40:05.295Z,9.88
2019-03-03T02:41:05.754Z,9.88
2019-03-03T02:42:05.133Z,9.94
2019-03-03T02:43:05.717Z,9.94
2019-03-03T02:44:05.937Z,9.94
2019-03-03T02:45:06.021Z,10.00
2019-03-03T02:46:05.676Z,10.00
2019-03-03T02:47:05.453Z,9.94
2019-03-03T02:48:05.934Z,9.94
2019-03-03T02:49:05.697Z,9.94
2019-03-03T02:50:05.137Z,9.94
2019-03-03T02:51:05.537Z,9.94
2019-03-03T02:52:05.764Z,9.94
2019-03-03T02:53:05.149Z,10.00
2019-03-03T02:54:05.208Z,9.94
2019-03-03T02:55:06.031Z,9.94
2019-03-03T02:56:06.008Z,9.94
2019-03-03T02:57:05.216Z,9.94
2019-03-03T02:58:05.293Z,9.94
2019-03-03T02:59:05.879Z,9.94
2019-03-03T03:00:05.293Z,9.94
2019-03-03T03:01:05.848Z,9.94
2019-03-03T03:02:05.222Z,9.94
2019-03-03T03:03:05.464Z,9.94
2019-03-03T03:04:05.702Z,9.94
2019-03-03T03:05:05.791Z,9.94
2019-03-03T03:06:05.861Z,9.94
2019-03-03T03:07:05.313Z,9.94
2019-03-03T03:08:05.277Z,9.94
2019-03-03T03:09:05.467Z,9.94
2019-03-03T03:10:05.692Z,9.94
2019-03-03T03:11:05.319Z,9.94
2019-03-03T03:12:05.365Z,9.94
2019-03-03T03:13:05.855Z,10.12
2019-03-03T03:14:05.997Z,10.25
2019-03-03T03:15:05.316Z,10.25
2019-03-03T03:16:05.373Z,10.25
2019-03-03T03:17:05.697Z,10.12
2019-03-03T03:18:05.312Z,10.12
2019-03-03T03:19:05.605Z,10.06
2019-03-03T03:20:05.146Z,10.06
2019-03-03T03:21:05.316Z,10.06
2019-03-03T03:22:05.858Z,10.06
2019-03-03T03:23:05.963Z,10.06
2019-03-03T03:24:05.458Z,10.06
2019-03-03T03:25:05.693Z,10.00
2019-03-03T03:26:05.404Z,10.06
2019-03-03T03:27:07.266Z,10.31
2019-03-03T03:28:05.876Z,10.25
2019-03-03T03:29:05.539Z,10.19
2019-03-03T03:30:05.689Z,10.12
2019-03-03T03:31:05.363Z,10.06
2019-03-03T03:32:05.861Z,10.06
2019-03-03T03:33:05.931Z,10.00
2019-03-03T03:34:05.711Z,10.00
2019-03-03T03:35:05.886Z,9.94
2019-03-03T03:36:05.934Z,9.94
2019-03-03T03:37:05.638Z,9.94
2019-03-03T03:38:05.604Z,9.88
2019-03-03T03:39:05.458Z,9.88
2019-03-03T03:40:05.713Z,9.88
2019-03-03T03:41:05.701Z,9.88
2019-03-03T03:42:05.296Z,9.88
2019-03-03T03:43:05.373Z,9.88
2019-03-03T03:44:05.542Z,9.81
2019-03-03T03:45:05.692Z,9.81
2019-03-03T03:46:05.851Z,9.81
2019-03-03T03:47:05.457Z,9.81
2019-03-03T03:48:05.693Z,9.88
2019-03-03T03:49:05.850Z,9.88
2019-03-03T03:50:05.444Z,9.81
2019-03-03T03:51:06.025Z,9.88
2019-03-03T03:52:05.285Z,9.81
2019-03-03T03:53:05.860Z,9.88
2019-03-03T03:54:05.235Z,9.88
2019-03-03T03:55:05.555Z,9.88
2019-03-03T03:56:05.516Z,9.88
2019-03-03T03:57:05.887Z,9.88
2019-03-03T03:58:05.378Z,9.88
2019-03-03T03:59:05.621Z,9.88
2019-03-03T04:00:06.278Z,9.88
2019-03-03T04:01:05.616Z,9.88
2019-03-03T04:02:06.010Z,9.88
2019-03-03T04:03:06.520Z,9.81
2019-03-03T04:04:05.281Z,9.81
2019-03-03T04:05:05.292Z,9.81
2019-03-03T04:06:05.857Z,9.81
2019-03-03T04:07:05.199Z,9.88
2019-03-03T04:08:05.714Z,9.88
2019-03-03T04:09:05.962Z,9.88
2019-03-03T04:10:05.454Z,9.81
2019-03-03T04:11:05.531Z,9.88
2019-03-03T04:12:05.691Z,9.81
2019-03-03T04:13:05.291Z,9.81
2019-03-03T04:14:05.628Z,9.81
2019-03-03T04:15:05.859Z,9.81
2019-03-03T04:16:05.874Z,9.81
2019-03-03T04:17:05.221Z,9.75
2019-03-03T04:18:05.397Z,9.75
2019-03-03T04:19:05.453Z,9.81
2019-03-03T04:20:05.692Z,9.81
2019-03-03T04:21:05.783Z,9.81
2019-03-03T04:22:05.394Z,9.81
2019-03-03T04:23:05.448Z,9.81
2019-03-03T04:24:05.693Z,9.75
2019-03-03T04:25:05.850Z,9.75
2019-03-03T04:26:05.122Z,9.75
2019-03-03T04:27:05.301Z,9.75
2019-03-03T04:28:05.460Z,9.75
2019-03-03T04:29:05.369Z,9.75
2019-03-03T04:30:05.824Z,9.75
2019-03-03T04:31:05.841Z,9.75
2019-03-03T04:32:05.130Z,9.75
2019-03-03T04:33:05.375Z,9.75
2019-03-03T04:34:06.511Z,9.75
2019-03-03T04:35:05.854Z,9.75
2019-03-03T04:36:06.102Z,9.75
2019-03-03T04:37:05.566Z,9.69
2019-03-03T04:38:06.170Z,9.69
2019-03-03T04:39:05.142Z,9.75
2019-03-03T04:40:05.671Z,9.69
2019-03-03T04:41:05.047Z,9.75
2019-03-03T04:42:05.201Z,9.75
2019-03-03T04:43:05.369Z,9.75
2019-03-03T04:44:05.539Z,9.75
2019-03-03T04:45:05.221Z,9.75
2019-03-03T04:46:05.372Z,9.75
2019-03-03T04:47:05.550Z,9.75
2019-03-03T04:48:05.692Z,9.75
2019-03-03T04:49:06.002Z,9.75
2019-03-03T04:50:05.284Z,9.75
2019-03-03T04:51:05.611Z,9.75
2019-03-03T04:52:05.217Z,9.75
2019-03-03T04:53:05.368Z,9.75
2019-03-03T04:54:05.923Z,9.75
2019-03-03T04:55:04.954Z,9.75
2019-03-03T04:56:05.396Z,9.75
2019-03-03T04:57:05.679Z,9.75
2019-03-03T04:58:05.134Z,9.75
2019-03-03T04:59:05.294Z,9.81
2019-03-03T05:00:05.675Z,9.75
2019-03-03T05:01:05.295Z,9.75
2019-03-03T05:02:05.844Z,9.75
2019-03-03T05:03:06.030Z,9.75
2019-03-03T05:04:05.202Z,9.75
2019-03-03T05:05:05.455Z,9.75
2019-03-03T05:06:05.837Z,9.75
2019-03-03T05:07:05.374Z,9.69
2019-03-03T05:08:05.606Z,9.75
2019-03-03T05:09:05.788Z,9.75
2019-03-03T05:10:05.291Z,9.75
2019-03-03T05:11:05.945Z,9.75
2019-03-03T05:12:05.449Z,9.75
2019-03-03T05:13:05.151Z,9.75
2019-03-03T05:14:05.217Z,9.69
2019-03-03T05:15:05.298Z,9.75
2019-03-03T05:16:05.387Z,9.69
2019-03-03T05:17:05.782Z,9.69
2019-03-03T05:18:05.196Z,9.69
2019-03-03T05:19:05.381Z,9.75
2019-03-03T05:20:05.454Z,9.75
2019-03-03T05:21:05.692Z,9.75
2019-03-03T05:22:05.954Z,9.75
2019-03-03T05:23:06.020Z,9.69
2019-03-03T05:24:05.049Z,9.69
2019-03-03T05:25:06.027Z,9.69
2019-03-03T05:26:05.531Z,9.69
2019-03-03T05:27:05.787Z,9.69
2019-03-03T05:28:05.233Z,9.69
2019-03-03T05:29:05.212Z,9.69
2019-03-03T05:30:05.788Z,9.69
2019-03-03T05:31:05.300Z,9.62
2019-03-03T05:32:05.841Z,9.69
2019-03-03T05:33:05.373Z,9.69
2019-03-03T05:34:05.708Z,9.62
2019-03-03T05:35:05.755Z,9.62
2019-03-03T05:36:05.953Z,9.69
2019-03-03T05:37:05.996Z,9.75
2019-03-03T05:38:05.788Z,9.75
2019-03-03T05:39:05.847Z,9.81
2019-03-03T05:40:06.099Z,9.81
2019-03-03T05:41:05.053Z,9.88
2019-03-03T05:42:05.194Z,9.94
2019-03-03T05:43:05.767Z,9.88
2019-03-03T05:44:05.053Z,9.94
2019-03-03T05:45:05.128Z,10.06
2019-03-03T05:46:05.552Z,10.12
2019-03-03T05:47:06.488Z,10.12
2019-03-03T05:48:05.692Z,10.06
2019-03-03T05:49:05.850Z,9.94
2019-03-03T05:50:05.221Z,9.81
2019-03-03T05:51:05.286Z,9.62
2019-03-03T05:52:06.522Z,9.62
2019-03-03T05:53:05.854Z,9.62
2019-03-03T05:54:05.134Z,9.56
2019-03-03T05:55:05.297Z,9.56
2019-03-03T05:56:05.692Z,9.62
2019-03-03T05:57:05.413Z,9.62
2019-03-03T05:58:06.105Z,9.62
2019-03-03T05:59:05.625Z,9.56
2019-03-03T06:00:05.598Z,9.44
2019-03-03T06:01:06.022Z,9.38
2019-03-03T06:02:05.057Z,9.31
2019-03-03T06:03:05.125Z,9.25
2019-03-03T06:04:05.287Z,9.19
2019-03-03T06:05:05.526Z,9.12
2019-03-03T06:06:05.711Z,9.06
2019-03-03T06:07:05.688Z,9.06
2019-03-03T06:08:05.773Z,9.06
2019-03-03T06:09:05.693Z,9.12
2019-03-03T06:10:05.940Z,9.06
2019-03-03T06:11:05.146Z,9.06
2019-03-03T06:12:05.123Z,9.00
2019-03-03T06:13:05.534Z,8.94
2019-03-03T06:14:05.868Z,8.94
2019-03-03T06:15:05.843Z,8.88
2019-03-03T06:16:05.546Z,8.88
2019-03-03T06:17:05.119Z,8.94
2019-03-03T06:18:05.778Z,8.88
2019-03-03T06:19:05.214Z,8.88
2019-03-03T06:20:05.368Z,8.81
2019-03-03T06:21:05.607Z,8.88
2019-03-03T06:22:05.233Z,8.81
2019-03-03T06:23:05.300Z,8.81
2019-03-03T06:24:05.861Z,8.75
2019-03-03T06:25:05.147Z,8.75
2019-03-03T06:26:05.456Z,8.81
2019-03-03T06:27:05.612Z,8.81
2019-03-03T06:28:05.133Z,8.81
2019-03-03T06:29:05.289Z,8.88
2019-03-03T06:30:05.577Z,8.81
2019-03-03T06:31:05.126Z,8.88
2019-03-03T06:32:05.307Z,8.81
2019-03-03T06:33:05.941Z,8.81
2019-03-03T06:34:05.860Z,8.75
2019-03-03T06:35:05.438Z,8.81
2019-03-03T06:36:06.014Z,8.75
2019-03-03T06:37:05.590Z,8.75
2019-03-03T06:38:05.702Z,8.81
2019-03-03T06:39:05.917Z,8.75
2019-03-03T06:40:05.620Z,8.75
2019-03-03T06:41:06.003Z,8.75
2019-03-03T06:42:05.699Z,9.00
2019-03-03T06:43:05.303Z,8.94
2019-03-03T06:44:05.701Z,8.94
2019-03-03T06:45:05.199Z,8.88
2019-03-03T06:46:05.291Z,8.88
2019-03-03T06:47:05.771Z,8.88
2019-03-03T06:48:05.370Z,8.88
2019-03-03T06:49:05.528Z,8.81
2019-03-03T06:50:05.692Z,8.81
2019-03-03T06:51:05.835Z,8.81
2019-03-03T06:52:06.031Z,8.88
2019-03-03T06:53:05.274Z,9.06
2019-03-03T06:54:05.406Z,9.00
2019-03-03T06:55:05.028Z,9.00
2019-03-03T06:56:05.297Z,9.12
2019-03-03T06:57:06.016Z,9.12
2019-03-03T06:58:05.772Z,9.12
2019-03-03T06:59:06.002Z,9.25
2019-03-03T07:00:06.015Z,9.38
2019-03-03T07:01:05.769Z,9.25
2019-03-03T07:02:06.036Z,9.19
2019-03-03T07:03:05.136Z,9.19
2019-03-03T07:04:05.542Z,9.12
2019-03-03T07:05:05.196Z,9.06
2019-03-03T07:06:05.695Z,9.06
2019-03-03T07:07:05.854Z,9.00
2019-03-03T07:08:05.146Z,9.00
2019-03-03T07:09:06.817Z,9.00
2019-03-03T07:10:06.033Z,8.94
2019-03-03T07:11:05.784Z,8.94
2019-03-03T07:12:05.998Z,9.00
2019-03-03T07:13:05.535Z,9.06
2019-03-03T07:14:05.866Z,9.00
2019-03-03T07:15:06.015Z,9.12
2019-03-03T07:16:05.686Z,9.06
2019-03-03T07:17:05.128Z,9.12
2019-03-03T07:18:05.644Z,9.12
2019-03-03T07:19:05.833Z,9.12
2019-03-03T07:20:05.401Z,9.31
2019-03-03T07:21:06.092Z,9.69
2019-03-03T07:22:06.188Z,9.69
2019-03-03T07:23:05.838Z,9.62
2019-03-03T07:24:05.619Z,9.75
2019-03-03T07:25:05.114Z,9.69
2019-03-03T07:26:06.174Z,9.69
2019-03-03T07:27:05.791Z,9.56
2019-03-03T07:28:06.010Z,9.56
2019-03-03T07:29:05.690Z,9.56
2019-03-03T07:30:05.225Z,9.56
2019-03-03T07:31:05.694Z,9.50
2019-03-03T07:32:05.777Z,9.44
2019-03-03T07:33:05.774Z,9.44
2019-03-03T07:34:05.144Z,9.38
2019-03-03T07:35:05.942Z,9.38
2019-03-03T07:36:05.241Z,9.31
2019-03-03T07:37:06.015Z,9.31
2019-03-03T07:38:05.727Z,9.31
2019-03-03T07:39:05.680Z,9.44
2019-03-03T07:40:05.362Z,9.44
2019-03-03T07:41:05.595Z,9.44
2019-03-03T07:42:06.748Z,9.44
2019-03-03T07:43:06.224Z,9.38
2019-03-03T07:44:05.755Z,9.38
2019-03-03T07:45:06.150Z,9.38
2019-03-03T07:46:05.295Z,9.38
2019-03-03T07:47:05.836Z,9.31
2019-03-03T07:48:05.193Z,9.31
2019-03-03T07:49:05.924Z,9.31
2019-03-03T07:50:05.236Z,9.31
2019-03-03T07:51:05.135Z,9.31
2019-03-03T07:52:05.381Z,9.44
2019-03-03T07:53:05.799Z,9.69
2019-03-03T07:54:05.927Z,9.81
2019-03-03T07:55:05.373Z,9.94
2019-03-03T07:56:05.448Z,9.94
2019-03-03T07:57:05.853Z,10.38
2019-03-03T07:58:05.955Z,10.38
2019-03-03T07:59:06.019Z,10.38
2019-03-03T08:00:05.471Z,10.38
2019-03-03T08:01:05.714Z,10.44
2019-03-03T08:02:05.371Z,10.38
2019-03-03T08:03:05.761Z,10.25
2019-03-03T08:04:04.963Z,10.12
2019-03-03T08:05:05.130Z,10.06
2019-03-03T08:06:05.474Z,9.94
2019-03-03T08:07:05.688Z,9.94
2019-03-03T08:08:05.848Z,9.94
2019-03-03T08:09:05.296Z,9.88
2019-03-03T08:10:05.550Z,9.81
2019-03-03T08:11:05.683Z,9.81
2019-03-03T08:12:05.266Z,9.75
2019-03-03T08:13:09.104Z,9.75
2019-03-03T08:14:05.135Z,9.69
2019-03-03T08:15:05.292Z,9.69
2019-03-03T08:16:05.380Z,9.62
2019-03-03T08:17:05.932Z,9.62
2019-03-03T08:18:05.231Z,9.62
2019-03-03T08:19:05.456Z,9.56
2019-03-03T08:20:06.817Z,9.62
2019-03-03T08:21:05.516Z,9.56
2019-03-03T08:22:05.708Z,9.56
2019-03-03T08:23:05.368Z,9.56
2019-03-03T08:24:05.214Z,9.88
2019-03-03T08:25:05.760Z,9.88
2019-03-03T08:26:07.631Z,10.00
2019-03-03T08:27:05.778Z,10.12
2019-03-03T08:28:05.226Z,10.19
2019-03-03T08:29:05.294Z,10.25
2019-03-03T08:30:05.767Z,10.44
2019-03-03T08:31:05.129Z,10.56
2019-03-03T08:32:05.946Z,10.56
2019-03-03T08:33:05.133Z,10.62
2019-03-03T08:34:05.295Z,10.69
2019-03-03T08:35:05.279Z,10.75
2019-03-03T08:36:06.115Z,10.81
2019-03-03T08:37:05.291Z,10.81
2019-03-03T08:38:05.669Z,10.88
2019-03-03T08:39:05.754Z,11.00
2019-03-03T08:40:05.379Z,11.00
2019-03-03T08:41:05.619Z,11.00
2019-03-03T08:42:05.863Z,11.00
2019-03-03T08:43:06.441Z,11.06
2019-03-03T08:44:05.934Z,11.06
2019-03-03T08:45:05.205Z,11.12
2019-03-03T08:46:05.374Z,11.06
2019-03-03T08:47:05.599Z,11.00
2019-03-03T08:48:05.709Z,10.88
2019-03-03T08:49:05.114Z,10.75
2019-03-03T08:50:05.925Z,10.69
2019-03-03T08:51:05.279Z,10.56
2019-03-03T08:52:05.434Z,10.50
2019-03-03T08:53:06.005Z,10.44
2019-03-03T08:54:06.120Z,10.56
2019-03-03T08:55:05.514Z,10.56
2019-03-03T08:56:05.312Z,10.50
2019-03-03T08:57:05.463Z,10.44
2019-03-03T08:58:05.527Z,10.38
2019-03-03T08:59:05.446Z,10.38
2019-03-03T09:00:06.110Z,10.50
2019-03-03T09:01:05.114Z,10.50
2019-03-03T09:02:05.276Z,10.50
2019-03-03T09:03:05.510Z,11.25
2019-03-03T09:04:05.591Z,11.75
2019-03-03T09:05:05.938Z,11.81
2019-03-03T09:06:05.948Z,11.81
2019-03-03T09:07:05.518Z,11.69
2019-03-03T09:08:05.124Z,11.56
2019-03-03T09:09:05.610Z,11.38
2019-03-03T09:10:05.541Z,11.25
2019-03-03T09:11:05.922Z,11.12
2019-03-03T09:12:05.059Z,11.12
2019-03-03T09:13:05.123Z,11.12
2019-03-03T09:14:05.645Z,11.19
2019-03-03T09:15:05.587Z,11.06
2019-03-03T09:16:05.768Z,11.00
2019-03-03T09:17:05.206Z,10.88
2019-03-03T09:18:05.571Z,10.81
2019-03-03T09:19:05.753Z,10.69
2019-03-03T09:20:05.442Z,10.69
2019-03-03T09:21:05.524Z,10.62
2019-03-03T09:22:05.586Z,10.56
2019-03-03T09:23:05.686Z,10.62
2019-03-03T09:24:05.469Z,10.75
2019-03-03T09:25:05.448Z,10.88
2019-03-03T09:26:05.750Z,10.81
2019-03-03T09:27:05.837Z,10.69
2019-03-03T09:28:05.163Z,10.62
2019-03-03T09:29:05.218Z,10.56
2019-03-03T09:30:05.693Z,10.50
2019-03-03T09:31:05.710Z,10.44
2019-03-03T09:32:05.882Z,10.38
2019-03-03T09:33:05.230Z,10.31
2019-03-03T09:34:05.228Z,10.31
2019-03-03T09:35:05.303Z,10.31
2019-03-03T09:36:05.209Z,10.25
2019-03-03T09:37:05.947Z,10.25
2019-03-03T09:38:05.760Z,10.19
2019-03-03T09:39:05.608Z,10.19
2019-03-03T09:40:09.198Z,10.19
2019-03-03T09:41:05.126Z,10.12
2019-03-03T09:42:05.782Z,10.12
2019-03-03T09:43:05.752Z,10.12
2019-03-03T09:44:05.921Z,10.12
2019-03-03T09:45:05.549Z,10.12
2019-03-03T09:46:04.971Z,10.12
2019-03-03T09:47:05.040Z,10.12
2019-03-03T09:48:06.113Z,10.12
2019-03-03T09:49:06.034Z,10.06
2019-03-03T09:50:05.131Z,10.12
2019-03-03T09:51:05.381Z,10.06
2019-03-03T09:52:05.276Z,10.06
2019-03-03T09:53:06.028Z,10.06
2019-03-03T09:54:06.024Z,10.06
2019-03-03T09:55:04.972Z,10.06
2019-03-03T09:56:05.246Z,10.06
2019-03-03T09:57:05.376Z,10.06
2019-03-03T09:58:05.845Z,10.06
2019-03-03T09:59:05.430Z,10.06
2019-03-03T10:00:05.611Z,10.06
2019-03-03T10:01:05.855Z,10.06
2019-03-03T10:02:05.596Z,10.06
2019-03-03T10:03:05.888Z,10.12
2019-03-03T10:04:05.936Z,10.12
2019-03-03T10:05:05.053Z,10.12
2019-03-03T10:07:05.284Z,10.12
2019-03-03T10:07:09.857Z,10.12
2019-03-03T10:08:04.997Z,10.19
2019-03-03T10:09:05.212Z,10.19
2019-03-03T10:10:05.631Z,10.19
2019-03-03T10:11:05.028Z,10.25
2019-03-03T10:12:05.141Z,10.19
2019-03-03T10:13:05.276Z,10.19
2019-03-03T10:14:05.693Z,10.25
2019-03-03T10:15:05.841Z,10.25
2019-03-03T10:16:05.788Z,10.25
2019-03-03T10:17:05.602Z,10.25
2019-03-03T10:18:05.701Z,10.25
2019-03-03T10:19:07.070Z,10.31
2019-03-03T10:20:05.771Z,10.31
2019-03-03T10:21:05.347Z,10.31
2019-03-03T10:22:05.446Z,10.31
2019-03-03T10:23:05.517Z,10.31
2019-03-03T10:24:05.699Z,10.38
2019-03-03T10:25:05.630Z,10.38
2019-03-03T10:26:06.020Z,10.38
2019-03-03T10:27:05.910Z,10.38
2019-03-03T10:28:05.533Z,10.44
2019-03-03T10:29:05.863Z,10.44
2019-03-03T10:30:05.206Z,10.44
2019-03-03T10:31:05.483Z,10.38
2019-03-03T10:32:05.772Z,10.44
2019-03-03T10:33:05.828Z,10.44
2019-03-03T10:34:06.023Z,10.44
2019-03-03T10:35:05.850Z,10.44
2019-03-03T10:36:05.024Z,10.44
2019-03-03T10:37:05.210Z,10.38
2019-03-03T10:38:05.682Z,10.38
2019-03-03T10:39:05.023Z,10.38
2019-03-03T10:40:05.122Z,10.38
2019-03-03T10:41:05.032Z,10.31
2019-03-03T10:42:05.126Z,10.31
2019-03-03T10:43:05.024Z,10.31
2019-03-03T10:44:05.047Z,10.31
2019-03-03T10:45:04.931Z,10.31
2019-03-03T10:46:05.047Z,10.31
2019-03-03T10:47:05.928Z,10.31
2019-03-03T10:48:05.107Z,10.31
2019-03-03T10:49:05.585Z,10.31
2019-03-03T10:50:05.498Z,10.31
2019-03-03T10:51:05.093Z,10.38
2019-03-03T10:52:05.025Z,10.38
2019-03-03T10:53:05.120Z,10.38
2019-03-03T10:54:05.343Z,10.38
2019-03-03T10:55:05.489Z,10.38
2019-03-03T10:56:05.503Z,10.38
2019-03-03T10:57:05.080Z,10.44
2019-03-03T10:58:05.590Z,10.44
2019-03-03T10:59:05.100Z,10.44
2019-03-03T11:00:05.425Z,10.44
2019-03-03T11:01:05.978Z,10.44
2019-03-03T11:02:04.959Z,10.44
2019-03-03T11:03:05.006Z,10.44
2019-03-03T11:04:05.097Z,10.44
2019-03-03T11:05:05.346Z,10.44
2019-03-03T11:06:05.517Z,10.44
2019-03-03T11:07:05.111Z,10.44
2019-03-03T11:08:05.016Z,10.44
2019-03-03T11:09:05.186Z,10.44
2019-03-03T11:10:05.185Z,10.44
2019-03-03T11:11:05.660Z,10.44
2019-03-03T11:12:05.761Z,10.44
2019-03-03T11:13:05.741Z,10.44
2019-03-03T11:14:05.952Z,10.44
2019-03-03T11:15:05.108Z,10.44
2019-03-03T11:16:05.695Z,10.44
2019-03-03T11:17:05.661Z,10.44
2019-03-03T11:18:05.205Z,10.50
2019-03-03T11:19:05.528Z,10.50
2019-03-03T11:20:04.986Z,10.50
2019-03-03T11:21:05.593Z,10.50
2019-03-03T11:22:05.855Z,10.50
2019-03-03T11:23:05.929Z,10.56
2019-03-03T11:24:05.376Z,10.56
2019-03-03T11:25:05.862Z,10.56
2019-03-03T11:26:05.939Z,10.56
2019-03-03T11:27:05.194Z,10.62
2019-03-03T11:28:05.320Z,10.62
2019-03-03T11:29:05.370Z,10.62
2019-03-03T11:30:05.791Z,10.69
2019-03-03T11:31:05.699Z,10.69
2019-03-03T11:32:06.895Z,10.69
2019-03-03T11:33:05.077Z,10.69
2019-03-03T11:34:05.848Z,10.69
2019-03-03T11:35:05.056Z,10.69
2019-03-03T11:36:05.536Z,10.75
2019-03-03T11:37:05.695Z,10.75
2019-03-03T11:38:06.021Z,10.75
2019-03-03T11:39:05.371Z,10.81
2019-03-03T11:40:05.361Z,10.81
2019-03-03T11:41:05.516Z,10.88
2019-03-03T11:42:05.063Z,10.88
2019-03-03T11:43:05.156Z,10.88
2019-03-03T11:44:05.224Z,10.88
2019-03-03T11:45:05.227Z,10.94
2019-03-03T11:46:05.216Z,10.94
2019-03-03T11:47:05.211Z,10.94
2019-03-03T11:48:05.310Z,10.94
2019-03-03T11:49:05.456Z,11.00
2019-03-03T11:50:05.612Z,11.00
2019-03-03T11:51:05.289Z,11.00
2019-03-03T11:52:05.803Z,11.00
2019-03-03T11:53:05.867Z,11.06
2019-03-03T11:54:05.868Z,11.00
2019-03-03T11:55:05.356Z,11.06
2019-03-03T11:56:05.774Z,11.06
2019-03-03T11:57:05.929Z,11.06
2019-03-03T11:58:05.378Z,11.06
2019-03-03T11:59:05.629Z,11.06
2019-03-03T12:00:05.611Z,11.06
2019-03-03T12:01:05.729Z,11.06
2019-03-03T12:02:04.976Z,11.12
2019-03-03T12:03:04.969Z,11.12
2019-03-03T12:04:05.210Z,11.06
2019-03-03T12:05:05.129Z,11.12
2019-03-03T12:06:05.190Z,11.12
2019-03-03T12:07:05.863Z,11.12
2019-03-03T12:08:05.852Z,11.12
2019-03-03T12:09:05.936Z,11.12
2019-03-03T12:10:05.830Z,11.12
2019-03-03T12:11:05.464Z,11.19
2019-03-03T12:12:05.771Z,11.38
2019-03-03T12:13:05.846Z,11.69
2019-03-03T12:14:05.373Z,11.75
2019-03-03T12:15:05.612Z,11.88
2019-03-03T12:16:05.846Z,12.00
2019-03-03T12:17:05.453Z,12.12
2019-03-03T12:18:05.682Z,12.19
2019-03-03T12:19:05.136Z,12.31
2019-03-03T12:20:05.115Z,12.56
2019-03-03T12:21:05.689Z,12.69
2019-03-03T12:22:05.754Z,12.69
2019-03-03T12:23:05.772Z,12.81
2019-03-03T12:24:05.917Z,12.88
2019-03-03T12:25:05.848Z,12.94
2019-03-03T12:26:05.518Z,13.00
2019-03-03T12:27:05.855Z,13.00
2019-03-03T12:28:05.381Z,13.00
2019-03-03T12:29:05.317Z,13.00
2019-03-03T12:30:05.847Z,13.06
2019-03-03T12:31:05.845Z,13.06
2019-03-03T12:32:05.045Z,13.19
2019-03-03T12:33:05.534Z,13.19
2019-03-03T12:34:05.215Z,13.19
2019-03-03T12:35:05.302Z,13.25
2019-03-03T12:36:05.385Z,13.19
2019-03-03T12:37:05.618Z,14.56
2019-03-03T12:38:05.682Z,14.31
2019-03-03T12:39:05.049Z,14.12
2019-03-03T12:40:05.607Z,13.94
2019-03-03T12:41:05.701Z,13.81
2019-03-03T12:42:06.016Z,13.69
2019-03-03T12:43:05.373Z,13.62
2019-03-03T12:44:05.453Z,13.62
2019-03-03T12:45:05.547Z,13.56
2019-03-03T12:46:05.922Z,13.31
2019-03-03T12:47:04.970Z,13.12
2019-03-03T12:48:05.036Z,12.88
2019-03-03T12:49:04.993Z,12.75
2019-03-03T12:50:04.964Z,12.56
2019-03-03T12:51:05.370Z,12.44
2019-03-03T12:52:05.956Z,12.31
2019-03-03T12:53:06.443Z,12.19
2019-03-03T12:54:05.063Z,12.12
2019-03-03T12:55:05.452Z,12.06
2019-03-03T12:56:05.525Z,12.00
2019-03-03T12:57:05.694Z,11.88
2019-03-03T12:58:05.697Z,11.94
2019-03-03T12:59:05.131Z,11.88
2019-03-03T13:00:05.619Z,11.88
2019-03-03T13:01:05.947Z,12.12
2019-03-03T13:02:05.869Z,12.19
2019-03-03T13:03:05.932Z,12.25
2019-03-03T13:04:05.540Z,12.19
2019-03-03T13:05:05.631Z,12.06
2019-03-03T13:06:05.615Z,12.56
2019-03-03T13:07:05.533Z,13.06